createdAt,value
2019-04-03T00:00:45.070Z,10.16
2019-04-03T00:01:45.067Z,10.13
2019-04-03T00:02:45.058Z,10.16
2019-04-03T00:03:45.055Z,10.10
2019-04-03T00:04:45.028Z,10.17
2019-04-03T00:05:45.009Z,10.15
2019-04-03T00:06:45.002Z,10.10
2019-04-03T00:07:45.004Z,10.13
2019-04-03T00:08:44.995Z,10.15
2019-04-03T00:09:44.969Z,10.22
2019-04-03T00:10:44.953Z,10.16
2019-04-03T00:11:44.944Z,10.09
2019-04-03T00:12:44.977Z,10.12
2019-04-03T00:13:44.935Z,10.12
2019-04-03T00:14:44.933Z,10.28
2019-04-03T00:15:45.270Z,10.28
2019-04-03T00:16:45.522Z,10.28
2019-04-03T00:17:45.955Z,10.30
2019-04-03T00:18:46.872Z,10.35
2019-04-03T00:19:45.770Z,10.33
2019-04-03T00:20:44.850Z,10.23
2019-04-03T00:21:44.836Z,10.25
2019-04-03T00:22:46.465Z,10.31
2019-04-03T00:23:44.965Z,10.34
2019-04-03T00:24:44.801Z,10.25
2019-04-03T00:25:44.804Z,10.25
2019-04-03T00:26:44.795Z,10.26
2019-04-03T00:27:44.775Z,10.28
2019-04-03T00:28:44.761Z,10.23
2019-04-03T00:29:44.745Z,10.23
2019-04-03T00:30:44.750Z,10.20
2019-04-03T00:31:44.725Z,10.22
2019-04-03T00:32:44.719Z,10.28
2019-04-03T00:33:44.703Z,10.26
2019-04-03T00:34:44.700Z,10.19
2019-04-03T00:35:44.693Z,10.17
2019-04-03T00:36:44.667Z,10.16
2019-04-03T00:37:44.653Z,10.19
2019-04-03T00:38:44.643Z,10.16
2019-04-03T00:39:44.651Z,10.20
2019-04-03T00:40:44.633Z,10.12
2019-04-03T00:41:44.620Z,10.15
2019-04-03T00:42:44.619Z,10.15
2019-04-03T00:43:44.587Z,9.99
2019-04-03T00:44:44.577Z,9.98
2019-04-03T00:45:44.568Z,9.86
2019-04-03T00:46:44.566Z,9.84
2019-04-03T00:47:44.546Z,9.82
2019-04-03T00:48:44.538Z,9.77
2019-04-03T00:49:44.555Z,9.68
2019-04-03T00:50:44.520Z,9.73
2019-04-03T00:51:44.498Z,9.64
2019-04-03T00:52:44.500Z,9.61
2019-04-03T00:53:44.496Z,9.59
2019-04-03T00:54:44.471Z,9.58
2019-04-03T00:55:44.484Z,9.58
2019-04-03T00:56:44.493Z,9.46
2019-04-03T00:57:44.436Z,9.40
2019-04-03T00:58:44.428Z,9.36
2019-04-03T00:59:44.409Z,9.34
2019-04-03T01:00:44.399Z,9.21
2019-04-03T01:01:44.406Z,9.22
2019-04-03T01:02:44.391Z,9.19
2019-04-03T01:03:44.364Z,9.16
2019-04-03T01:04:44.365Z,9.23
2019-04-03T01:05:44.359Z,9.14
2019-04-03T01:06:44.356Z,9.14
2019-04-03T01:07:44.329Z,9.14
2019-04-03T01:08:44.317Z,9.18
2019-04-03T01:09:44.305Z,9.13
2019-04-03T01:10:44.294Z,9.19
2019-04-03T01:11:44.374Z,9.11
2019-04-03T01:12:44.271Z,9.22
2019-04-03T01:13:44.266Z,9.19
2019-04-03T01:14:44.262Z,9.21
2019-04-03T01:15:44.261Z,9.26
2019-04-03T01:16:44.228Z,9.28
2019-04-03T01:17:44.420Z,9.32
2019-04-03T01:18:44.205Z,9.32
2019-04-03T01:19:44.201Z,9.28
2019-04-03T01:20:44.330Z,9.29
2019-04-03T01:21:44.174Z,9.36
2019-04-03T01:22:44.157Z,9.31
2019-04-03T01:23:44.187Z,9.43
2019-04-03T01:24:44.138Z,9.34
2019-04-03T01:25:44.126Z,9.37
2019-04-03T01:26:44.114Z,9.31
2019-04-03T01:27:44.114Z,9.26
2019-04-03T01:28:44.089Z,9.28
2019-04-03T01:29:44.110Z,9.13
2019-04-03T01:30:44.707Z,9.08
2019-04-03T01:31:44.715Z,9.11
2019-04-03T01:32:46.139Z,9.16
2019-04-03T01:33:46.093Z,9.18
2019-04-03T01:34:44.020Z,9.21
2019-04-03T01:35:44.078Z,9.16
2019-04-03T01:36:44.006Z,9.19
2019-04-03T01:37:43.989Z,9.23
2019-04-03T01:38:43.995Z,9.22
2019-04-03T01:39:43.971Z,9.16
2019-04-03T01:40:44.069Z,9.28
2019-04-03T01:41:43.949Z,9.29
2019-04-03T01:42:44.030Z,9.26
2019-04-03T01:43:43.927Z,9.28
2019-04-03T01:44:44.071Z,9.23
2019-04-03T01:45:43.901Z,9.19
2019-04-03T01:46:43.905Z,9.16
2019-04-03T01:47:43.881Z,9.21
2019-04-03T01:48:43.876Z,9.23
2019-04-03T01:49:44.008Z,9.29
2019-04-03T01:50:43.845Z,9.31
2019-04-03T01:51:43.929Z,9.29
2019-04-03T01:52:43.828Z,9.29
2019-04-03T01:53:43.812Z,9.25
2019-04-03T01:54:43.806Z,9.32
2019-04-03T01:55:43.929Z,9.31
2019-04-03T01:56:43.779Z,9.25
2019-04-03T01:57:43.880Z,9.28
2019-04-03T01:58:43.764Z,9.31
2019-04-03T01:59:43.749Z,9.28
2019-04-03T02:00:43.734Z,9.23
2019-04-03T02:01:43.892Z,9.18
2019-04-03T02:02:43.711Z,9.19
2019-04-03T02:03:43.707Z,9.13
2019-04-03T02:04:43.696Z,9.16
2019-04-03T02:05:44.127Z,9.18
2019-04-03T02:06:44.341Z,9.18
2019-04-03T02:07:44.747Z,9.08
2019-04-03T02:08:44.931Z,9.11
2019-04-03T02:09:46.146Z,9.00
2019-04-03T02:10:43.631Z,8.82
2019-04-03T02:11:43.630Z,8.82
2019-04-03T02:12:43.601Z,8.88
2019-04-03T02:13:43.654Z,8.85
2019-04-03T02:14:43.577Z,8.79
2019-04-03T02:15:43.568Z,8.69
2019-04-03T02:16:43.703Z,8.67
2019-04-03T02:17:43.556Z,8.82
2019-04-03T02:18:43.535Z,8.84
2019-04-03T02:19:43.652Z,8.84
2019-04-03T02:20:43.516Z,8.89
2019-04-03T02:21:43.502Z,8.78
2019-04-03T02:22:43.527Z,8.88
2019-04-03T02:23:43.543Z,8.85
2019-04-03T02:24:43.461Z,8.84
2019-04-03T02:25:43.488Z,8.84
2019-04-03T02:26:43.452Z,8.71
2019-04-03T02:27:43.507Z,8.74
2019-04-03T02:28:43.434Z,8.69
2019-04-03T02:29:43.495Z,8.81
2019-04-03T02:30:46.135Z,8.70
2019-04-03T02:31:43.408Z,8.67
2019-04-03T02:32:43.681Z,8.74
2019-04-03T02:33:43.422Z,8.73
2019-04-03T02:34:43.352Z,8.69
2019-04-03T02:35:43.348Z,8.67
2019-04-03T02:36:44.911Z,8.70
2019-04-03T02:37:43.319Z,8.71
2019-04-03T02:38:43.326Z,8.64
2019-04-03T02:39:43.396Z,8.58
2019-04-03T02:40:43.297Z,8.63
2019-04-03T02:41:43.279Z,8.58
2019-04-03T02:42:43.333Z,8.51
2019-04-03T02:43:46.339Z,8.56
2019-04-03T02:44:43.655Z,8.55
2019-04-03T02:45:43.243Z,8.63
2019-04-03T02:46:43.223Z,8.66
2019-04-03T02:47:43.275Z,8.63
2019-04-03T02:48:43.345Z,8.58
2019-04-03T02:49:43.885Z,8.53
2019-04-03T02:50:46.659Z,8.52
2019-04-03T02:51:43.167Z,8.56
2019-04-03T02:52:43.158Z,8.53
2019-04-03T02:53:43.199Z,8.55
2019-04-03T02:54:43.151Z,8.46
2019-04-03T02:55:43.124Z,8.49
2019-04-03T02:56:45.476Z,8.38
2019-04-03T02:57:43.184Z,8.37
2019-04-03T02:58:43.089Z,8.30
2019-04-03T02:59:43.083Z,8.27
2019-04-03T03:00:43.476Z,8.23
2019-04-03T03:01:43.060Z,8.24
2019-04-03T03:02:45.354Z,8.18
2019-04-03T03:03:43.659Z,8.23
2019-04-03T03:04:43.028Z,8.13
2019-04-03T03:05:43.063Z,8.09
2019-04-03T03:06:43.011Z,8.12
2019-04-03T03:07:43.106Z,8.09
2019-04-03T03:08:43.122Z,7.97
2019-04-03T03:09:45.948Z,7.94
2019-04-03T03:10:42.968Z,7.98
2019-04-03T03:11:42.961Z,7.97
2019-04-03T03:12:43.009Z,7.97
2019-04-03T03:13:43.239Z,8.00
2019-04-03T03:14:42.912Z,8.01
2019-04-03T03:15:44.328Z,8.03
2019-04-03T03:16:42.933Z,7.97
2019-04-03T03:17:42.882Z,7.97
2019-04-03T03:18:42.863Z,7.91
2019-04-03T03:19:42.854Z,7.93
2019-04-03T03:20:42.896Z,7.90
2019-04-03T03:21:44.744Z,7.97
2019-04-03T03:22:43.062Z,8.03
2019-04-03T03:23:42.810Z,8.00
2019-04-03T03:24:42.812Z,7.97
2019-04-03T03:25:42.795Z,7.94
2019-04-03T03:26:42.799Z,8.01
2019-04-03T03:27:43.272Z,7.97
2019-04-03T03:28:45.680Z,8.01
2019-04-03T03:29:42.752Z,7.97
2019-04-03T03:30:54.044Z,7.93
2019-04-03T03:32:06.381Z,7.94
2019-04-03T03:32:44.043Z,7.94
2019-04-03T03:33:43.501Z,7.93
2019-04-03T03:34:53.837Z,7.95
2019-04-03T03:35:47.146Z,7.95
2019-04-03T03:36:44.008Z,7.90
2019-04-03T03:37:42.923Z,7.95
2019-04-03T03:38:42.883Z,8.01
2019-04-03T03:39:44.078Z,8.03
2019-04-03T03:40:42.629Z,8.00
2019-04-03T03:41:42.709Z,7.95
2019-04-03T03:42:42.638Z,8.01
2019-04-03T03:43:42.971Z,8.03
2019-04-03T03:44:45.523Z,8.03
2019-04-03T03:45:42.579Z,7.88
2019-04-03T03:46:42.771Z,7.95
2019-04-03T03:47:42.564Z,7.90
2019-04-03T03:48:44.204Z,7.91
2019-04-03T03:49:42.535Z,7.94
2019-04-03T03:50:42.514Z,7.85
2019-04-03T03:51:42.722Z,7.76
2019-04-03T03:52:42.893Z,7.79
2019-04-03T03:53:44.807Z,7.73
2019-04-03T03:54:42.813Z,7.77
2019-04-03T03:55:42.460Z,7.79
2019-04-03T03:56:42.577Z,7.76
2019-04-03T03:57:42.447Z,7.67
2019-04-03T03:58:44.590Z,7.72
2019-04-03T03:59:42.716Z,7.87
2019-04-03T04:00:42.425Z,7.94
2019-04-03T04:01:42.386Z,7.88
2019-04-03T04:02:44.548Z,7.93
2019-04-03T04:03:42.510Z,7.80
2019-04-03T04:04:46.675Z,7.77
2019-04-03T04:05:43.466Z,7.79
2019-04-03T04:06:42.754Z,7.70
2019-04-03T04:07:42.324Z,7.70
2019-04-03T04:08:44.293Z,7.61
2019-04-03T04:09:42.353Z,7.69
2019-04-03T04:10:42.321Z,7.54
2019-04-03T04:11:42.282Z,7.56
2019-04-03T04:12:42.624Z,7.54
2019-04-03T04:13:42.820Z,7.56
2019-04-03T04:14:42.285Z,7.51
2019-04-03T04:15:42.514Z,7.47
2019-04-03T04:16:42.245Z,7.45
2019-04-03T04:17:42.542Z,7.39
2019-04-03T04:18:42.213Z,7.25
2019-04-03T04:19:42.189Z,7.25
2019-04-03T04:20:42.247Z,7.10
2019-04-03T04:21:43.919Z,7.15
2019-04-03T04:22:42.160Z,7.15
2019-04-03T04:23:42.144Z,7.11
2019-04-03T04:24:42.131Z,7.10
2019-04-03T04:25:44.190Z,7.23
2019-04-03T04:26:42.126Z,7.15
2019-04-03T04:27:42.104Z,7.25
2019-04-03T04:28:42.097Z,7.21
2019-04-03T04:29:42.270Z,7.31
2019-04-03T04:30:42.509Z,7.23
2019-04-03T04:31:44.292Z,7.14
2019-04-03T04:32:42.363Z,7.18
2019-04-03T04:33:42.041Z,7.31
2019-04-03T04:34:42.030Z,7.23
2019-04-03T04:35:42.014Z,7.33
2019-04-03T04:36:42.020Z,7.39
2019-04-03T04:37:42.067Z,7.47
2019-04-03T04:38:41.992Z,7.47
2019-04-03T04:39:42.145Z,7.43
2019-04-03T04:40:41.959Z,7.51
2019-04-03T04:41:41.959Z,7.42
2019-04-03T04:42:42.090Z,7.50
2019-04-03T04:43:42.081Z,7.54
2019-04-03T04:44:41.909Z,7.48
2019-04-03T04:45:42.706Z,7.54
2019-04-03T04:46:43.600Z,7.47
2019-04-03T04:47:41.876Z,7.54
2019-04-03T04:48:42.002Z,7.51
2019-04-03T04:49:41.909Z,7.56
2019-04-03T04:50:41.842Z,7.53
2019-04-03T04:51:41.844Z,7.57
2019-04-03T04:52:41.836Z,7.58
2019-04-03T04:53:41.815Z,7.50
2019-04-03T04:54:43.013Z,7.61
2019-04-03T04:55:41.797Z,7.63
2019-04-03T04:56:41.782Z,7.56
2019-04-03T04:57:41.778Z,7.66
2019-04-03T04:58:42.933Z,7.66
2019-04-03T04:59:42.990Z,7.72
2019-04-03T05:00:41.749Z,7.73
2019-04-03T05:01:41.956Z,7.72
2019-04-03T05:02:41.726Z,7.72
2019-04-03T05:03:41.771Z,7.75
2019-04-03T05:04:41.692Z,7.73
2019-04-03T05:05:41.678Z,7.77
2019-04-03T05:06:41.806Z,7.73
2019-04-03T05:07:41.687Z,7.77
2019-04-03T05:08:41.645Z,7.82
2019-04-03T05:09:41.639Z,7.80
2019-04-03T05:10:41.795Z,7.88
2019-04-03T05:11:41.621Z,7.80
2019-04-03T05:12:44.755Z,7.95
2019-04-03T05:13:41.600Z,8.06
2019-04-03T05:14:41.583Z,8.09
2019-04-03T05:15:41.743Z,8.09
2019-04-03T05:16:41.559Z,8.06
2019-04-03T05:17:41.668Z,8.00
2019-04-03T05:18:41.573Z,8.08
2019-04-03T05:19:41.724Z,8.01
2019-04-03T05:20:41.517Z,7.97
2019-04-03T05:21:41.503Z,8.00
2019-04-03T05:22:41.499Z,7.97
2019-04-03T05:23:41.585Z,7.97
2019-04-03T05:24:41.485Z,7.91
2019-04-03T05:25:41.463Z,8.03
2019-04-03T05:26:41.623Z,8.01
2019-04-03T05:27:41.438Z,8.05
2019-04-03T05:28:53.297Z,8.06
2019-04-03T05:29:42.425Z,8.00
2019-04-03T05:30:41.406Z,7.93
2019-04-03T05:31:41.624Z,7.94
2019-04-03T05:32:41.635Z,7.93
2019-04-03T05:33:42.322Z,8.00
2019-04-03T05:34:43.515Z,8.00
2019-04-03T05:35:41.350Z,7.90
2019-04-03T05:36:41.626Z,7.90
2019-04-03T05:37:41.349Z,7.94
2019-04-03T05:38:41.316Z,7.94
2019-04-03T05:39:41.303Z,7.98
2019-04-03T05:40:41.304Z,7.97
2019-04-03T05:41:41.286Z,7.98
2019-04-03T05:42:41.273Z,7.98
2019-04-03T05:43:41.415Z,8.09
2019-04-03T05:44:41.252Z,8.12
2019-04-03T05:45:42.256Z,8.12
2019-04-03T05:46:41.230Z,8.27
2019-04-03T05:47:41.397Z,8.23
2019-04-03T05:48:41.466Z,8.31
2019-04-03T05:49:41.196Z,8.31
2019-04-03T05:50:41.204Z,8.28
2019-04-03T05:51:41.334Z,8.20
2019-04-03T05:52:41.163Z,8.33
2019-04-03T05:53:41.146Z,8.37
2019-04-03T05:54:43.930Z,8.44
2019-04-03T05:55:41.766Z,8.45
2019-04-03T05:56:42.945Z,8.52
2019-04-03T05:57:41.110Z,8.55
2019-04-03T05:58:54.042Z,8.53
2019-04-03T05:59:43.560Z,8.58
2019-04-03T06:00:41.099Z,8.61
2019-04-03T06:01:42.622Z,8.67
2019-04-03T06:02:41.049Z,8.67
2019-04-03T06:03:44.867Z,8.82
2019-04-03T06:04:41.722Z,8.88
2019-04-03T06:05:41.853Z,8.84
2019-04-03T06:06:41.027Z,8.81
2019-04-03T06:07:41.004Z,8.91
2019-04-03T06:08:40.982Z,8.95
2019-04-03T06:09:40.977Z,8.99
2019-04-03T06:10:40.962Z,9.11
2019-04-03T06:11:41.224Z,9.03
2019-04-03T06:12:40.958Z,9.06
2019-04-03T06:13:40.930Z,9.14
2019-04-03T06:14:40.917Z,9.19
2019-04-03T06:15:40.901Z,9.32
2019-04-03T06:16:40.900Z,9.39
2019-04-03T06:17:41.146Z,9.51
2019-04-03T06:18:40.895Z,9.54
2019-04-03T06:19:40.927Z,9.68
2019-04-03T06:20:42.593Z,9.76
2019-04-03T06:21:40.834Z,9.99
2019-04-03T06:22:40.979Z,10.12
2019-04-03T06:23:40.830Z,10.13
2019-04-03T06:24:40.813Z,10.04
2019-04-03T06:25:40.792Z,10.12
2019-04-03T06:26:41.641Z,10.31
2019-04-03T06:27:42.965Z,10.64
2019-04-03T06:28:42.536Z,10.79
2019-04-03T06:29:40.753Z,10.67
2019-04-03T06:30:40.734Z,10.56
2019-04-03T06:31:40.994Z,10.37
2019-04-03T06:32:40.718Z,10.28
2019-04-03T06:33:40.738Z,10.41
2019-04-03T06:34:43.351Z,10.22
2019-04-03T06:35:40.692Z,10.07
2019-04-03T06:36:40.681Z,10.12
2019-04-03T06:37:40.663Z,10.01
2019-04-03T06:38:40.910Z,9.97
2019-04-03T06:39:40.646Z,10.05
2019-04-03T06:40:40.658Z,10.13
2019-04-03T06:41:42.027Z,10.40
2019-04-03T06:42:40.600Z,10.64
2019-04-03T06:43:40.599Z,10.76
2019-04-03T06:44:40.595Z,10.90
2019-04-03T06:45:43.023Z,11.10
2019-04-03T06:46:40.567Z,11.37
2019-04-03T06:47:40.587Z,11.50
2019-04-03T06:48:40.536Z,11.54
2019-04-03T06:49:41.089Z,11.48
2019-04-03T06:50:40.513Z,11.54
2019-04-03T06:51:40.512Z,11.50
2019-04-03T06:52:40.498Z,11.72
2019-04-03T06:53:40.480Z,11.90
2019-04-03T06:54:40.471Z,11.78
2019-04-03T06:55:40.468Z,11.75
2019-04-03T06:56:41.257Z,11.78
2019-04-03T06:57:40.436Z,11.87
2019-04-03T06:58:43.611Z,11.91
2019-04-03T06:59:40.415Z,11.75
2019-04-03T07:00:40.409Z,11.95
2019-04-03T07:01:40.672Z,12.15
2019-04-03T07:02:40.386Z,12.04
2019-04-03T07:03:40.369Z,11.99
2019-04-03T07:04:40.362Z,11.94
2019-04-03T07:05:41.687Z,11.99
2019-04-03T07:06:42.805Z,12.24
2019-04-03T07:07:40.552Z,12.64
2019-04-03T07:08:41.145Z,13.03
2019-04-03T07:09:40.302Z,13.16
2019-04-03T07:10:40.480Z,13.18
2019-04-03T07:11:40.284Z,13.33
2019-04-03T07:12:40.378Z,13.44
2019-04-03T07:13:40.410Z,13.08
2019-04-03T07:14:40.248Z,12.86
2019-04-03T07:15:40.233Z,12.65
2019-04-03T07:16:40.236Z,12.65
2019-04-03T07:17:40.222Z,12.82
2019-04-03T07:18:40.201Z,12.98
2019-04-03T07:19:40.277Z,13.08
2019-04-03T07:20:40.182Z,12.67
2019-04-03T07:21:40.167Z,12.58
2019-04-03T07:22:40.164Z,12.60
2019-04-03T07:23:40.162Z,12.87
2019-04-03T07:24:40.131Z,13.28
2019-04-03T07:25:40.129Z,13.47
2019-04-03T07:26:40.111Z,13.33
2019-04-03T07:27:42.226Z,13.44
2019-04-03T07:28:41.501Z,13.68
2019-04-03T07:29:40.115Z,13.92
2019-04-03T07:30:40.065Z,13.93
2019-04-03T07:31:40.059Z,13.70
2019-04-03T07:32:40.108Z,13.41
2019-04-03T07:33:40.033Z,13.13
2019-04-03T07:34:40.027Z,13.08
2019-04-03T07:35:40.654Z,13.03
2019-04-03T07:36:41.404Z,13.28
2019-04-03T07:37:40.036Z,13.49
2019-04-03T07:38:40.006Z,13.62
2019-04-03T07:39:39.959Z,13.90
2019-04-03T07:40:39.949Z,14.04
2019-04-03T07:41:41.559Z,14.30
2019-04-03T07:42:40.000Z,14.58
2019-04-03T07:43:40.045Z,14.62
2019-04-03T07:44:39.916Z,14.51
2019-04-03T07:45:39.913Z,14.44
2019-04-03T07:46:39.927Z,14.04
2019-04-03T07:47:39.878Z,14.17
2019-04-03T07:48:39.914Z,14.00
2019-04-03T07:49:40.263Z,13.99
2019-04-03T07:50:41.967Z,14.23
2019-04-03T07:51:39.827Z,14.28
2019-04-03T07:52:39.820Z,14.20
2019-04-03T07:53:39.805Z,13.97
2019-04-03T07:54:40.448Z,14.14
2019-04-03T07:55:39.783Z,14.30
2019-04-03T07:56:39.771Z,14.26
2019-04-03T07:57:41.397Z,14.47
2019-04-03T07:58:39.751Z,14.82
2019-04-03T07:59:39.770Z,14.73
2019-04-03T08:00:39.830Z,14.53
2019-04-03T08:01:41.653Z,14.55
2019-04-03T08:02:39.722Z,14.53
2019-04-03T08:03:39.699Z,14.53
2019-04-03T08:04:39.975Z,14.58
2019-04-03T08:05:39.683Z,14.68
2019-04-03T08:06:39.669Z,14.97
2019-04-03T08:07:39.657Z,15.15
2019-04-03T08:08:39.646Z,14.96
2019-04-03T08:09:39.833Z,14.65
2019-04-03T08:10:39.662Z,14.54
2019-04-03T08:11:39.615Z,14.32
2019-04-03T08:12:39.623Z,14.55
2019-04-03T08:13:39.582Z,14.79
2019-04-03T08:14:41.206Z,15.00
2019-04-03T08:15:40.152Z,15.04
2019-04-03T08:16:42.062Z,15.15
2019-04-03T08:17:39.542Z,15.29
2019-04-03T08:18:39.537Z,15.22
2019-04-03T08:19:39.521Z,15.46
2019-04-03T08:20:39.515Z,15.55
2019-04-03T08:21:39.807Z,15.77
2019-04-03T08:22:39.526Z,15.84
2019-04-03T08:23:39.470Z,15.90
2019-04-03T08:24:40.134Z,15.94
2019-04-03T08:25:42.183Z,15.77
2019-04-03T08:26:39.450Z,15.37
2019-04-03T08:27:39.436Z,15.31
2019-04-03T08:28:39.415Z,15.03
2019-04-03T08:29:39.446Z,14.97
2019-04-03T08:30:40.603Z,15.14
2019-04-03T08:31:42.497Z,15.17
2019-04-03T08:32:39.374Z,15.19
2019-04-03T08:33:39.358Z,15.09
2019-04-03T08:34:39.359Z,15.24
2019-04-03T08:35:39.422Z,15.31
2019-04-03T08:36:39.939Z,15.24
2019-04-03T08:37:41.676Z,15.25
2019-04-03T08:38:39.653Z,15.35
2019-04-03T08:39:39.297Z,15.33
2019-04-03T08:40:39.292Z,15.28
2019-04-03T08:41:39.270Z,15.59
2019-04-03T08:42:39.564Z,15.70
2019-04-03T08:43:39.250Z,15.62
2019-04-03T08:44:39.241Z,15.72
2019-04-03T08:45:39.647Z,15.97
2019-04-03T08:46:43.039Z,15.97
2019-04-03T08:47:39.207Z,15.94
2019-04-03T08:48:39.480Z,16.26
2019-04-03T08:49:39.189Z,16.41
2019-04-03T08:50:39.172Z,16.49
2019-04-03T08:51:39.161Z,16.15
2019-04-03T08:52:39.152Z,16.12
2019-04-03T08:53:39.737Z,16.12
2019-04-03T08:54:41.354Z,16.04
2019-04-03T08:55:39.181Z,15.97
2019-04-03T08:56:39.109Z,15.91
2019-04-03T08:57:39.098Z,15.52
2019-04-03T08:58:39.180Z,15.58
2019-04-03T08:59:39.135Z,15.64
2019-04-03T09:00:39.061Z,15.79
2019-04-03T09:01:39.409Z,15.79
2019-04-03T09:02:39.043Z,16.08
2019-04-03T09:03:39.041Z,16.38
2019-04-03T09:04:39.079Z,16.39
2019-04-03T09:05:39.016Z,16.47
2019-04-03T09:06:39.000Z,16.41
2019-04-03T09:07:39.331Z,16.21
2019-04-03T09:08:39.025Z,15.84
2019-04-03T09:09:38.960Z,15.77
2019-04-03T09:10:38.948Z,15.88
2019-04-03T09:11:38.963Z,16.05
2019-04-03T09:12:39.000Z,16.32
2019-04-03T09:13:38.921Z,16.74
2019-04-03T09:14:38.918Z,16.93
2019-04-03T09:15:38.897Z,17.11
2019-04-03T09:16:38.980Z,17.05
2019-04-03T09:17:39.101Z,16.94
2019-04-03T09:18:38.862Z,17.04
2019-04-03T09:19:41.053Z,16.58
2019-04-03T09:20:39.003Z,16.64
2019-04-03T09:21:38.924Z,16.39
2019-04-03T09:22:38.820Z,16.51
2019-04-03T09:23:38.910Z,16.69
2019-04-03T09:24:38.839Z,16.72
2019-04-03T09:25:39.068Z,16.66
2019-04-03T09:26:38.835Z,16.38
2019-04-03T09:27:40.606Z,16.54
2019-04-03T09:28:41.266Z,16.53
2019-04-03T09:29:38.743Z,16.46
2019-04-03T09:30:39.044Z,16.74
2019-04-03T09:31:38.722Z,16.91
2019-04-03T09:32:38.718Z,16.78
2019-04-03T09:33:38.703Z,16.99
2019-04-03T09:34:38.694Z,17.08
2019-04-03T09:35:38.763Z,17.23
2019-04-03T09:36:38.663Z,17.46
2019-04-03T09:37:38.835Z,17.72
2019-04-03T09:38:40.715Z,18.00
2019-04-03T09:39:38.639Z,17.86
2019-04-03T09:40:38.619Z,17.72
2019-04-03T09:41:38.612Z,17.70
2019-04-03T09:42:38.607Z,17.67
2019-04-03T09:43:39.661Z,17.92
2019-04-03T09:44:38.580Z,18.10
2019-04-03T09:45:38.829Z,18.16
2019-04-03T09:46:38.833Z,18.00
2019-04-03T09:47:38.568Z,17.94
2019-04-03T09:48:39.169Z,17.98
2019-04-03T09:49:42.694Z,18.04
2019-04-03T09:50:39.512Z,18.43
2019-04-03T09:51:38.534Z,18.60
2019-04-03T09:52:46.141Z,18.86
2019-04-03T09:53:39.482Z,19.02
2019-04-03T09:54:38.470Z,19.09
2019-04-03T09:55:38.767Z,18.86
2019-04-03T09:56:54.902Z,18.74
2019-04-03T09:57:39.737Z,18.49
2019-04-03T09:58:38.542Z,18.60
2019-04-03T09:59:38.598Z,18.44
2019-04-03T10:00:41.342Z,18.40
2019-04-03T10:01:38.653Z,18.41
2019-04-03T10:02:38.422Z,18.41
2019-04-03T10:03:38.372Z,18.56
2019-04-03T10:04:38.432Z,18.53
2019-04-03T10:05:38.567Z,18.60
2019-04-03T10:06:38.383Z,18.59
2019-04-03T10:07:38.378Z,18.63
2019-04-03T10:08:40.414Z,18.47
2019-04-03T10:09:39.123Z,18.58
2019-04-03T10:10:38.302Z,18.60
2019-04-03T10:11:39.385Z,18.62
2019-04-03T10:12:38.367Z,18.63
2019-04-03T10:13:38.386Z,18.55
2019-04-03T10:14:38.272Z,18.45
2019-04-03T10:15:38.308Z,18.40
2019-04-03T10:16:38.509Z,18.50
2019-04-03T10:17:39.114Z,18.73
2019-04-03T10:18:39.085Z,18.88
2019-04-03T10:19:38.215Z,18.96
2019-04-03T10:20:38.185Z,18.92
2019-04-03T10:21:38.517Z,18.75
2019-04-03T10:22:38.473Z,18.74
2019-04-03T10:23:38.167Z,18.78
2019-04-03T10:24:38.154Z,18.96
2019-04-03T10:25:38.441Z,19.15
2019-04-03T10:26:40.553Z,19.16
2019-04-03T10:27:38.110Z,19.09
2019-04-03T10:28:38.100Z,18.98
2019-04-03T10:29:38.099Z,19.11
2019-04-03T10:30:38.330Z,19.31
2019-04-03T10:31:38.322Z,19.39
2019-04-03T10:32:38.052Z,19.39
2019-04-03T10:33:38.043Z,19.44
2019-04-03T10:34:38.043Z,19.16
2019-04-03T10:35:39.347Z,19.09
2019-04-03T10:36:38.015Z,19.09
2019-04-03T10:37:38.043Z,18.96
2019-04-03T10:38:37.988Z,18.96
2019-04-03T10:39:41.940Z,19.14
2019-04-03T10:40:38.974Z,19.15
2019-04-03T10:41:37.955Z,19.14
2019-04-03T10:42:38.101Z,19.19
2019-04-03T10:43:37.960Z,19.27
2019-04-03T10:44:37.927Z,19.45
2019-04-03T10:45:38.159Z,19.63
2019-04-03T10:46:37.928Z,19.52
2019-04-03T10:47:43.113Z,19.49
2019-04-03T10:48:39.065Z,19.33
2019-04-03T10:49:38.032Z,19.30
2019-04-03T10:50:38.644Z,19.49
2019-04-03T10:51:40.577Z,19.48
2019-04-03T10:52:38.133Z,19.40
2019-04-03T10:53:37.859Z,19.52
2019-04-03T10:54:38.570Z,19.64
2019-04-03T10:55:37.945Z,19.70
2019-04-03T10:56:37.800Z,19.71
2019-04-03T10:57:37.785Z,19.76
2019-04-03T10:58:38.390Z,19.84
2019-04-03T10:59:38.076Z,20.04
2019-04-03T11:00:38.210Z,20.37
2019-04-03T11:01:37.810Z,20.67
2019-04-03T11:02:37.737Z,20.95
2019-04-03T11:03:37.719Z,20.87
2019-04-03T11:04:37.709Z,20.40
2019-04-03T11:05:37.696Z,20.13
2019-04-03T11:06:37.910Z,20.04
2019-04-03T11:07:37.902Z,20.03
2019-04-03T11:08:37.659Z,20.32
2019-04-03T11:09:37.943Z,20.60
2019-04-03T11:10:37.644Z,20.66
2019-04-03T11:11:37.756Z,20.72
2019-04-03T11:12:38.041Z,20.63
2019-04-03T11:13:37.610Z,20.31
2019-04-03T11:14:39.232Z,20.26
2019-04-03T11:15:37.591Z,20.40
2019-04-03T11:16:39.396Z,20.40
2019-04-03T11:17:37.573Z,20.04
2019-04-03T11:18:37.567Z,20.04
2019-04-03T11:19:38.217Z,19.94
2019-04-03T11:20:38.880Z,20.04
2019-04-03T11:21:37.699Z,20.03
2019-04-03T11:22:42.714Z,20.09
2019-04-03T11:23:44.025Z,20.37
2019-04-03T11:24:41.895Z,20.66
2019-04-03T11:25:40.924Z,20.74
2019-04-03T11:26:37.504Z,20.81
2019-04-03T11:27:43.348Z,20.39
2019-04-03T11:28:39.022Z,20.31
2019-04-03T11:29:37.582Z,20.09
2019-04-03T11:30:37.660Z,20.16
2019-04-03T11:31:41.474Z,20.44
2019-04-03T11:32:40.706Z,20.59
2019-04-03T11:33:37.773Z,20.52
2019-04-03T11:34:37.390Z,20.51
2019-04-03T11:35:37.385Z,20.40
2019-04-03T11:36:37.436Z,20.13
2019-04-03T11:37:37.341Z,20.18
2019-04-03T11:38:37.338Z,20.02
2019-04-03T11:39:37.911Z,20.16
2019-04-03T11:40:37.309Z,20.10
2019-04-03T11:41:37.312Z,20.34
2019-04-03T11:42:37.292Z,20.59
2019-04-03T11:43:37.293Z,20.65
2019-04-03T11:44:37.301Z,20.48
2019-04-03T11:45:37.262Z,20.39
2019-04-03T11:46:37.632Z,20.36
2019-04-03T11:47:37.252Z,20.51
2019-04-03T11:48:37.255Z,20.65
2019-04-03T11:49:37.212Z,20.93
2019-04-03T11:50:39.408Z,20.99
2019-04-03T11:51:37.376Z,21.32
2019-04-03T11:52:37.180Z,21.36
2019-04-03T11:53:37.168Z,21.54
2019-04-03T11:54:39.502Z,21.61
2019-04-03T11:55:37.147Z,21.09
2019-04-03T11:56:37.157Z,20.77
2019-04-03T11:57:37.437Z,20.78
2019-04-03T11:58:37.123Z,20.97
2019-04-03T11:59:37.104Z,21.20
2019-04-03T12:00:37.099Z,21.55
2019-04-03T12:01:37.413Z,21.67
2019-04-03T12:02:39.096Z,22.13
2019-04-03T12:03:37.062Z,22.02
2019-04-03T12:04:37.048Z,21.93
2019-04-03T12:05:37.235Z,21.80
2019-04-03T12:06:37.039Z,22.02
2019-04-03T12:07:37.339Z,21.83
2019-04-03T12:08:37.046Z,21.91
2019-04-03T12:09:37.069Z,21.91
2019-04-03T12:10:37.493Z,21.91
2019-04-03T12:11:38.391Z,21.67
2019-04-03T12:12:37.096Z,21.40
2019-04-03T12:13:36.951Z,21.32
2019-04-03T12:14:37.050Z,21.17
2019-04-03T12:15:36.966Z,21.18
2019-04-03T12:16:37.073Z,21.07
2019-04-03T12:17:36.956Z,21.02
2019-04-03T12:18:37.269Z,21.00
2019-04-03T12:19:37.835Z,20.93
2019-04-03T12:20:41.224Z,20.82
2019-04-03T12:21:38.073Z,21.18
2019-04-03T12:22:36.849Z,21.52
2019-04-03T12:23:39.187Z,21.77
2019-04-03T12:24:36.835Z,21.96
2019-04-03T12:25:39.536Z,21.36
2019-04-03T12:26:36.812Z,20.95
2019-04-03T12:27:36.868Z,20.63
2019-04-03T12:28:36.794Z,20.28
2019-04-03T12:29:36.775Z,20.31
2019-04-03T12:30:36.872Z,20.32
2019-04-03T12:31:36.841Z,20.22
2019-04-03T12:32:42.652Z,20.16
2019-04-03T12:33:37.746Z,20.18
2019-04-03T12:34:37.725Z,20.25
2019-04-03T12:35:36.713Z,20.07
2019-04-03T12:36:37.167Z,19.99
2019-04-03T12:37:37.034Z,19.84
2019-04-03T12:38:36.750Z,19.92
2019-04-03T12:39:36.677Z,20.18
2019-04-03T12:40:36.884Z,20.29
2019-04-03T12:41:37.923Z,20.31
2019-04-03T12:42:36.738Z,20.36
2019-04-03T12:43:36.619Z,20.48
2019-04-03T12:44:36.673Z,20.43
2019-04-03T12:45:36.820Z,20.50
2019-04-03T12:46:37.314Z,20.90
2019-04-03T12:47:36.602Z,21.05
2019-04-03T12:48:36.576Z,21.00
2019-04-03T12:49:36.844Z,21.07
2019-04-03T12:50:36.930Z,21.03
2019-04-03T12:51:36.538Z,21.02
2019-04-03T12:52:36.679Z,21.06
2019-04-03T12:53:36.764Z,20.90
2019-04-03T12:54:36.653Z,20.80
2019-04-03T12:55:36.488Z,20.66
2019-04-03T12:56:36.486Z,20.69
2019-04-03T12:57:38.800Z,20.81
2019-04-03T12:58:37.975Z,21.00
2019-04-03T12:59:39.305Z,20.92
2019-04-03T13:00:36.454Z,20.77
2019-04-03T13:01:36.423Z,20.56
2019-04-03T13:02:36.743Z,20.37
2019-04-03T13:03:37.359Z,20.32